Shredder — ZGBG8 — position and weather

sailwx.info

Track history (hours):
 
Tides and Currents Weather Stations Pressure Air Temp Water Temp Dewpoint Dewpoint Depression Visibility Wind Speed Wind Dir Waves Ship Positions

Shredder

Last reported at 2014-Jun-19 20:33 UTC. Time now 2014-Oct-26 07:05 UTC.
Position N 26°07' W 080°06'.
Warning: this ship's position is months out of date.

Length 19 m; draft 1.5 m.

Type: Pleasure craft. MMSI: 319028900.

Date/timePositionNaut miles runAvg speedWind from/ knotsBaromVisibWave heightAir tempDewpointWater temp
2014-Jun-19 20:33N 26°07' W 080°06'  
2014-Jun-16 15:09N 26°04' W 080°08'0 0.7
2014-Jun-16 14:33N 26°04' W 080°08'6 5.7
2014-Jun-16 13:33N 25°58' W 080°07'7 7.0
2014-Jun-16 12:33N 25°51' W 080°08'1 1.5
2014-Jun-16 11:33N 25°50' W 080°07'0 0.0
2014-Jun-16 10:32N 25°50' W 080°07'0 0.0
2014-Jun-16 09:33N 25°50' W 080°07'0 0.0
2014-Jun-16 08:32N 25°50' W 080°07'0 0.0
2014-Jun-16 07:32N 25°50' W 080°07'0 0.0
2014-Jun-16 06:32N 25°50' W 080°07'0 0.0
2014-Jun-16 05:33N 25°50' W 080°07'0 0.0
2014-Jun-16 04:32N 25°50' W 080°07'0 0.0
2014-Jun-16 03:32N 25°50' W 080°07'0 0.0
2014-Jun-16 02:29N 25°50' W 080°07'0 0.0
2014-Jun-16 01:33N 25°50' W 080°07'0 0.0
2014-Jun-16 00:32N 25°50' W 080°07'0 0.0
2014-Jun-15 23:32N 25°50' W 080°07'0 0.0
2014-Jun-15 22:29N 25°50' W 080°07'0 0.0
2014-Jun-15 21:29N 25°50' W 080°07'0 0.0
2014-Jun-15 20:29N 25°50' W 080°07'0 0.0
2014-Jun-15 19:32N 25°50' W 080°07'0 0.2
2014-Jun-15 18:30N 25°49' W 080°07'0 0.0
2014-Jun-15 17:33N 25°49' W 080°07'0 0.0
2014-Jun-15 16:30N 25°49' W 080°07'0 0.0
2014-Jun-15 15:33N 25°49' W 080°07'0 0.0
2014-Jun-15 14:33N 25°49' W 080°07'0 0.0
2014-Jun-15 13:33N 25°49' W 080°07'0 0.0
2014-Jun-15 12:33N 25°49' W 080°07'0 0.0
2014-Jun-15 11:33N 25°49' W 080°07'0 0.0
2014-Jun-15 10:33N 25°49' W 080°07'0 0.0
2014-Jun-15 09:33N 25°49' W 080°07'0 0.0
2014-Jun-15 08:33N 25°49' W 080°07'0 0.0
2014-Jun-15 07:33N 25°49' W 080°07'0 0.0
2014-Jun-15 06:33N 25°49' W 080°07'0 0.0
2014-Jun-15 05:33N 25°49' W 080°07'0 0.0
2014-Jun-15 04:33N 25°49' W 080°07'0 0.0
2014-Jun-15 03:33N 25°49' W 080°07'0 0.0
2014-Jun-15 02:33N 25°49' W 080°07'0 0.0
2014-Jun-15 01:33N 25°49' W 080°07'0 0.0
2014-Jun-15 00:33N 25°49' W 080°07'0 0.0
2014-Jun-14 23:33N 25°49' W 080°07'0 0.0
2014-Jun-14 22:33N 25°49' W 080°07'0 0.0
2014-Jun-14 21:33N 25°49' W 080°07'0 0.5
2014-Jun-14 20:33N 25°50' W 080°07'3 3.4
2014-Jun-14 19:33N 25°53' W 080°09'4 4.3
2014-Jun-14 18:33N 25°49' W 080°07'1 1.3
2014-Jun-14 17:33N 25°50' W 080°07'1 0.0
2014-Jun-13 13:31N 25°49' W 080°07'  
Track history (hours):
 
Tides and Currents Weather Stations Pressure Air Temp Water Temp Dewpoint Dewpoint Depression Visibility Wind Speed Wind Dir Waves Ship Positions

Shredder

Last reported at 2014-Jun-19 20:33 UTC. Time now 2014-Oct-26 07:05 UTC.
Position N 26°07' W 080°06'.
Warning: this ship's position is months out of date.

Length 19 m; draft 1.5 m.

Type: Pleasure craft. MMSI: 319028900.

Date/timePositionNaut miles runAvg speedWind from/ knotsBaromVisibWave heightAir tempDewpointWater temp
2014-Jun-19 20:33N 26°07' W 080°06'  
2014-Jun-16 15:09N 26°04' W 080°08'0 0.7
2014-Jun-16 14:33N 26°04' W 080°08'6 5.7
2014-Jun-16 13:33N 25°58' W 080°07'7 7.0
2014-Jun-16 12:33N 25°51' W 080°08'1 1.5
2014-Jun-16 11:33N 25°50' W 080°07'0 0.0
2014-Jun-16 10:32N 25°50' W 080°07'0 0.0
2014-Jun-16 09:33N 25°50' W 080°07'0 0.0
2014-Jun-16 08:32N 25°50' W 080°07'0 0.0
2014-Jun-16 07:32N 25°50' W 080°07'0 0.0
2014-Jun-16 06:32N 25°50' W 080°07'0 0.0
2014-Jun-16 05:33N 25°50' W 080°07'0 0.0
2014-Jun-16 04:32N 25°50' W 080°07'0 0.0
2014-Jun-16 03:32N 25°50' W 080°07'0 0.0
2014-Jun-16 02:29N 25°50' W 080°07'0 0.0
2014-Jun-16 01:33N 25°50' W 080°07'0 0.0
2014-Jun-16 00:32N 25°50' W 080°07'0 0.0
2014-Jun-15 23:32N 25°50' W 080°07'0 0.0
2014-Jun-15 22:29N 25°50' W 080°07'0 0.0
2014-Jun-15 21:29N 25°50' W 080°07'0 0.0
2014-Jun-15 20:29N 25°50' W 080°07'0 0.0
2014-Jun-15 19:32N 25°50' W 080°07'0 0.2
2014-Jun-15 18:30N 25°49' W 080°07'0 0.0
2014-Jun-15 17:33N 25°49' W 080°07'0 0.0
2014-Jun-15 16:30N 25°49' W 080°07'0 0.0
2014-Jun-15 15:33N 25°49' W 080°07'0 0.0
2014-Jun-15 14:33N 25°49' W 080°07'0 0.0
2014-Jun-15 13:33N 25°49' W 080°07'0 0.0
2014-Jun-15 12:33N 25°49' W 080°07'0 0.0
2014-Jun-15 11:33N 25°49' W 080°07'0 0.0
2014-Jun-15 10:33N 25°49' W 080°07'0 0.0
2014-Jun-15 09:33N 25°49' W 080°07'0 0.0
2014-Jun-15 08:33N 25°49' W 080°07'0 0.0
2014-Jun-15 07:33N 25°49' W 080°07'0 0.0
2014-Jun-15 06:33N 25°49' W 080°07'0 0.0
2014-Jun-15 05:33N 25°49' W 080°07'0 0.0
2014-Jun-15 04:33N 25°49' W 080°07'0 0.0
2014-Jun-15 03:33N 25°49' W 080°07'0 0.0
2014-Jun-15 02:33N 25°49' W 080°07'0 0.0
2014-Jun-15 01:33N 25°49' W 080°07'0 0.0
2014-Jun-15 00:33N 25°49' W 080°07'0 0.0
2014-Jun-14 23:33N 25°49' W 080°07'0 0.0
2014-Jun-14 22:33N 25°49' W 080°07'0 0.0
2014-Jun-14 21:33N 25°49' W 080°07'0 0.5
2014-Jun-14 20:33N 25°50' W 080°07'3 3.4
2014-Jun-14 19:33N 25°53' W 080°09'4 4.3
2014-Jun-14 18:33N 25°49' W 080°07'1 1.3
2014-Jun-14 17:33N 25°50' W 080°07'1 0.0
2014-Jun-13 13:31N 25°49' W 080°07'  

Dump ship's entire track history